22 maja 2022

Czas Kod Pogoda Temp. Widoczność Chmury Wiatr METAR/SPECI
07:55
V
12 °C 10 km+ - 180°   180° 4 kt METAR EHLW 220555Z AUTO 18004KT 130V210 9999 NCD 12/10 Q1017 BLU
07:35
V
11 °C 10 km+ - 170°   170° 4 kt METAR EHLW 220535Z AUTO 17004KT 140V210 9999 NCD 11/10 Q1017 BLU
07:25
V
11 °C 8 km - 180°   180° 4 kt METAR EHLW 220525Z AUTO 18004KT 140V200 8000 BR NCD 11/10 Q1017 BLU
07:08
M
11 °C 5 km - 170°   170° 5 kt METAR EHLW 220508Z AUTO 17005KT 130V190 5000 BR SCT310 11/10 Q1017 WHT
07:04
I
11 °C 4,6 km 31.000 ft 180°   180° 4 kt METAR EHLW 220504Z AUTO 18004KT 130V190 4600 BR BKN310 11/10 Q1017 GRN
06:55
I
10 °C 1,6 km - 180°   180° 5 kt METAR EHLW 220455Z AUTO 18005KT 140V200 1600 BR FEW320 10/10 Q1017 YLO
06:41
L
10 °C 1 km - 180°   180° 5 kt METAR EHLW 220441Z AUTO 18005KT 130V190 1000 BR SCT230 10/09 Q1017 AMB
06:33
L
9 °C 600 m 23.000 ft 180°   180° 3 kt METAR EHLW 220433Z AUTO 18003KT 0600 FG OVC230 09/09 Q1017 RED
06:29
L
9 °C 800 m 22.000 ft 170°   170° 3 kt METAR EHLW 220429Z AUTO 17003KT 0800 FG OVC220 09/09 Q1017 AMB
06:25
I
9 °C 2,9 km 22.000 ft Var   Var 2 kt METAR EHLW 220425Z AUTO VRB02KT 2900 BR OVC220 09/09 Q1017 YLO
06:21
I
9 °C 2,5 km 22.000 ft Var   Var 2 kt METAR EHLW 220421Z AUTO VRB02KT 2500 BR OVC220 09/09 Q1017 YLO
06:11
L
9 °C 900 m 23.000 ft Var   Var 2 kt METAR EHLW 220411Z AUTO VRB02KT 0900 FG OVC230 09/08 Q1017 AMB
06:04
I
8 °C 2,1 km 23.000 ft 180°   180° 3 kt METAR EHLW 220404Z AUTO 18003KT 070V170 2100 BR OVC230 08/08 Q1017 YLO
05:55
I
9 °C 4,6 km 23.000 ft 150°   150° 3 kt METAR EHLW 220355Z AUTO 15003KT 110V170 4600 BR OVC230 09/08 Q1017 GRN
05:44
I
8 °C 2,1 km 23.000 ft 140°   140° 3 kt METAR EHLW 220344Z AUTO 14003KT 2100 BR OVC230 08/08 Q1017 YLO
05:39
M
8 °C 6 km 23.000 ft 150°   150° 2 kt METAR EHLW 220339Z AUTO 15002KT 6000 BR OVC230 08/08 Q1017 WHT
05:25
I
6 °C 3,1 km - Var   Var 2 kt METAR EHLW 220325Z AUTO VRB02KT 3100 BR SCT230 SCT320 06/06 Q1018 YLO
05:17
I
6 °C 1,5 km 32.000 ft Var   Var 2 kt METAR EHLW 220317Z AUTO VRB02KT 1500 BR FEW036 BKN320 06/06 Q1018 AMB
05:10
I
6 °C 2,9 km 32.000 ft 120°   120° 1 kt METAR EHLW 220310Z AUTO 12001KT 2900 BR FEW036 SCT240 BKN320 06/06 Q1018 YLO
05:09
M
6 °C 5 km 23.000 ft 120°   120° 1 kt METAR EHLW 220309Z AUTO 12001KT 5000 BR FEW036 BKN230 BKN320 06/06 Q1018 WHT
04:56
I
6 °C 2,2 km 23.000 ft Var   Var 2 kt METAR EHLW 220256Z AUTO VRB02KT 2200 BR OVC230 06/06 Q1018 YLO
04:55
L
7 °C 1,2 km 23.000 ft 120°   120° 2 kt METAR EHLW 220255Z AUTO 12002KT 1200 BR OVC230 07/06 Q1018 AMB
04:44
L
8 °C 1,2 km 23.000 ft 150°   150° 2 kt METAR EHLW 220244Z AUTO 15002KT 1200 BR OVC230 08/08 Q1018 AMB
04:40
I
8 °C 2,6 km 24.000 ft 170°   170° 2 kt METAR EHLW 220240Z AUTO 17002KT 2600 BR OVC240 08/08 Q1018 YLO
04:25
M
8 °C 5 km 27.000 ft 180°   180° 2 kt METAR EHLW 220225Z AUTO 18002KT 5000 BR BKN270 BKN340 08/07 Q1018 WHT
04:10
M
8 °C 6 km 31.000 ft 170°   170° 3 kt METAR EHLW 220210Z AUTO 17003KT 6000 BR SCT260 BKN310 08/08 Q1018 WHT
04:09
V
8 °C 8 km 26.000 ft 170°   170° 4 kt METAR EHLW 220209Z AUTO 17004KT 8000 BR BKN260 BKN310 08/08 Q1018 BLU
03:56
M
8 °C 7 km - 170°   170° 3 kt METAR EHLW 220156Z AUTO 17003KT 150V210 7000 BR NCD 08/08 Q1018 WHT
03:55
V
8 °C 8 km - 180°   180° 3 kt METAR EHLW 220155Z AUTO 18003KT 8000 BR NCD 08/08 Q1018 BLU
03:41
I
8 °C 3,7 km - 180°   180° 3 kt METAR EHLW 220141Z AUTO 18003KT 3700 BR FEW310 08/08 Q1018 GRN
03:25
M
7 °C 6 km - 160°   160° 2 kt METAR EHLW 220125Z AUTO 16002KT 6000 BR NCD 07/07 Q1018 WHT
02:55
M
9 °C 7 km - 170°   170° 3 kt METAR EHLW 220055Z AUTO 17003KT 090V160 7000 BR FEW220 09/08 Q1018 WHT
02:36
M
9 °C 6 km 22.000 ft 190°   190° 3 kt METAR EHLW 220036Z AUTO 19003KT 6000 BR OVC220 09/08 Q1018 WHT
02:25
M
8 °C 5 km - 180°   180° 4 kt METAR EHLW 220025Z AUTO 18004KT 180V260 5000 BR SCT250 08/08 Q1019 WHT
02:13
I
9 °C 4,9 km 28.000 ft 170°   170° 3 kt METAR EHLW 220013Z AUTO 17003KT 4900 BR BKN280 09/08 Q1019 GRN
02:03
M
9 °C 5 km - 190°   190° 3 kt METAR EHLW 220003Z AUTO 19003KT 130V190 5000 BR NCD 09/08 Q1019 WHT
01:55
I
8 °C 4,8 km - 200°   200° 3 kt METAR EHLW 212355Z AUTO 20003KT 4800 BR SCT250 08/08 Q1019 GRN
01:33
I
9 °C 4,5 km 25.000 ft 200°   200° 4 kt METAR EHLW 212333Z AUTO 20004KT 4500 BR OVC250 09/08 Q1019 GRN
01:29
M
9 °C 7 km 27.000 ft 180°   180° 4 kt METAR EHLW 212329Z AUTO 18004KT 7000 BR OVC270 09/08 Q1019 WHT
01:25
V
8 °C 8 km 28.000 ft 180°   180° 3 kt METAR EHLW 212325Z AUTO 18003KT 8000 BR OVC280 08/08 Q1019 BLU
01:17
M
8 °C 7 km 27.000 ft 180°   180° 2 kt METAR EHLW 212317Z AUTO 18002KT 7000 BR OVC270 08/08 Q1019 WHT
00:55
V
9 °C 10 km+ 24.000 ft 210°   210° 3 kt METAR EHLW 212255Z AUTO 21003KT 9999 OVC240 09/08 Q1019 BLU
00:25
V
9 °C 10 km+ - 170°   170° 1 kt METAR EHLW 212225Z AUTO 17001KT 9999 NCD 09/09 Q1019 BLU

21 maja 2022

Czas Kod Pogoda Temp. Widoczność Chmury Wiatr METAR/SPECI
23:55
V
9 °C 10 km+ 12.000 ft 180°   180° 2 kt METAR EHLW 212155Z AUTO 18002KT 9999 BKN120 09/08 Q1019 BLU
23:25
V
10 °C 10 km+ - 190°   190° 2 kt METAR EHLW 212125Z AUTO 19002KT 9999 SCT120 10/09 Q1019 BLU
22:55
V
10 °C 10 km+ - 240°   240° 3 kt METAR EHLW 212055Z AUTO 24003KT 9999 NCD 10/09 Q1020 BLU
22:25
V
11 °C 10 km+ - 230°   230° 3 kt METAR EHLW 212025Z AUTO 23003KT 9999 SCT100 11/09 Q1020 BLU
21:55
V
12 °C 10 km+ 13.000 ft 270°   270° 4 kt METAR EHLW 211955Z AUTO 27004KT 220V290 9999 OVC130 12/09 Q1020 BLU
21:25
V
13 °C 10 km+ 13.000 ft 270°   270° 5 kt METAR EHLW 211925Z AUTO 27005KT 240V300 9999 OVC130 13/09 Q1020 BLU
20:55
V
13 °C 10 km+ 13.000 ft 290°   290° 7 kt METAR EHLW 211855Z AUTO 29007KT 250V320 9999 OVC130 13/09 Q1020 BLU
20:34
V
13 °C 10 km+ 13.000 ft 290°   290° 7 kt METAR EHLW 211834Z AUTO 29007KT 250V310 9999 FEW018 OVC130 13/09 Q1020 BLU
20:25
M
13 °C 10 km+ 1.900 ft 270°   270° 7 kt METAR EHLW 211825Z AUTO 27007KT 250V320 9999 BKN019 BKN022 BKN026 13/09 Q1020 WHT
20:16
V
13 °C 10 km+ 14.000 ft 270°   270° 8 kt METAR EHLW 211816Z AUTO 27008KT 260V320 9999 SCT019 OVC140 13/09 Q1020 WHT
19:55
V
14 °C 10 km+ 13.000 ft 280°   280° 9 kt METAR EHLW 211755Z AUTO 28009KT 240V300 9999 OVC130 14/09 Q1020 BLU
19:36
V
14 °C 10 km+ 13.000 ft 270°   270° 11 kt METAR EHLW 211736Z AUTO 27011KT 240V310 9999 FEW021 OVC130 14/08 Q1020 BLU
19:25
V
14 °C 10 km+ 11.000 ft 270°   270° 10 kt METAR EHLW 211725Z AUTO 27010KT 9999 SCT020 OVC110 14/09 Q1020 WHT
18:55
V
14 °C 10 km+ 13.000 ft 270°   270° 11 kt METAR EHLW 211655Z AUTO 27011KT 230V300 9999 FEW020 SCT028 OVC130 14/09 Q1020 BLU
18:25
V
14 °C 10 km+ 13.000 ft 260°   260° 12 kt METAR EHLW 211625Z AUTO 26012KT 230V300 9999 FEW021 SCT025 OVC130 14/09 Q1020 BLU
18:12
V
15 °C 10 km+ 14.000 ft 260°   260° 13 kt METAR EHLW 211612Z AUTO 26013KT 230V310 9999 FEW020 SCT025 OVC140 15/09 Q1020 BLU
17:55
M
14 °C 10 km+ 2.400 ft 270°   270° 9 kt METAR EHLW 211555Z AUTO 27009KT 230V300 9999 FEW019 BKN024 OVC140 14/09 Q1020 WHT
17:25
V
14 °C 10 km+ 14.000 ft 290°   290° 11 kt METAR EHLW 211525Z AUTO 29011KT 220V310 9999 FEW018 SCT022 OVC140 14/10 Q1020 WHT
16:55
V
15 °C 10 km+ 4.100 ft 290°   290° 11 kt METAR EHLW 211455Z AUTO 29011KT 240V330 9999 FEW016 SCT028 BKN041 15/10 Q1020 BLU
16:25
M
15 °C 10 km+ 1.600 ft 290°   290° 12 kt METAR EHLW 211425Z AUTO 29012KT 260V320 9999 BKN016 BKN020 OVC025 15/10 Q1020 WHT
15:55
M
15 °C 10 km+ 1.600 ft 290°   290° 12 kt METAR EHLW 211355Z AUTO 29012KT 230V320 9999 BKN016 BKN021 BKN024 15/11 Q1020 WHT
15:25
M
15 °C 10 km+ 2.100 ft 280°   280° 13 kt METAR EHLW 211325Z AUTO 28013KT 240V310 9999 SCT017 BKN021 BKN024 15/11 Q1020 WHT
14:55
M
16 °C 10 km+ 2.300 ft 280°   280° 13 kt METAR EHLW 211255Z AUTO 28013KT 230V320 9999 SCT018 BKN023 16/11 Q1020 WHT
14:25
M
16 °C 10 km+ 2.100 ft 280°   280° 11 kt METAR EHLW 211225Z AUTO 28011KT 240V330 9999 SCT017 BKN021 BKN024 16/11 Q1020 WHT
13:55
M
16 °C 10 km+ 1.800 ft 290°   290° 12 kt METAR EHLW 211155Z AUTO 29012KT 250V320 9999 BKN018 BKN022 BKN026 16/11 Q1019 WHT
13:25
M
16 °C 10 km+ 1.700 ft 290°   290° 13 kt METAR EHLW 211125Z AUTO 29013KT 250V310 9999 BKN017 OVC020 16/11 Q1019 WHT
12:55
M
15 °C 10 km+ 2.300 ft 270°   270° 14 kt METAR EHLW 211055Z AUTO 27014KT 250V330 9999 SCT017 BKN023 BKN038 15/11 Q1019 WHT
12:25
M
15 °C 10 km+ 1.600 ft 270°   270° 15 kt METAR EHLW 211025Z AUTO 27015KT 250V320 9999 BKN016 BKN019 15/10 Q1019 WHT
11:55
M
15 °C 10 km+ 2.000 ft 280°   280° 14 kt METAR EHLW 210955Z AUTO 28014KT 250V310 9999 SCT017 BKN020 15/10 Q1019 WHT
11:25
M
14 °C 10 km+ 2.000 ft 290°   290° 16 kt METAR EHLW 210925Z AUTO 29016KT 230V320 9999 SCT016 BKN020 14/10 Q1018 WHT
10:55
M
14 °C 10 km+ 1.500 ft 280°   280° 16 kt METAR EHLW 210855Z AUTO 28016KT 240V310 9999 BKN015 BKN020 14/10 Q1018 WHT
10:25
M
14 °C 10 km+ 1.500 ft 280°   280° 16 kt METAR EHLW 210825Z AUTO 28016KT 240V320 9999 BKN015 14/10 Q1018 WHT
09:55
M
14 °C 10 km+ 1.600 ft 280°   280° 16 kt METAR EHLW 210755Z AUTO 28016KT 250V320 9999 BKN016 14/10 Q1018 WHT
09:25
M
14 °C 10 km+ 1.500 ft 290°   290° 17 kt METAR EHLW 210725Z AUTO 29017KT 240V320 9999 BKN015 BKN018 14/10 Q1017 WHT
08:55
M
14 °C 10 km+ 1.500 ft 270°   270° 17 kt METAR EHLW 210655Z AUTO 27017KT 240V300 9999 BKN015 14/10 Q1017 WHT
08:25
M
13 °C 10 km+ 1.500 ft 270°   270° 15 kt METAR EHLW 210625Z AUTO 27015KT 240V310 9999 BKN015 BKN018 13/10 Q1017 WHT
07:55
M
13 °C 10 km+ 1.600 ft 280°   280° 15 kt METAR EHLW 210555Z AUTO 28015KT 240V310 9999 BKN016 13/10 Q1016 WHT
07:25
M
13 °C 10 km+ 1.500 ft 270°   270° 15 kt METAR EHLW 210525Z AUTO 27015KT 230V300 9999 BKN015 BKN019 13/11 Q1016 WHT
06:55
M
13 °C 10 km+ 1.600 ft 270°   270° 15 kt METAR EHLW 210455Z AUTO 27015KT 230V310 9999 BKN016 BKN019 13/10 Q1016 WHT
06:42
V
13 °C 10 km+ - 270°   270° 15 kt METAR EHLW 210442Z AUTO 27015KT 240V320 9999 SCT017 13/10 Q1016 WHT
06:33
V
13 °C 10 km+ - 270°   270° 14 kt METAR EHLW 210433Z AUTO 27014KT 240V310 9999 FEW016 13/10 Q1016 BLU
06:25
M
13 °C 10 km+ 1.500 ft 270°   270° 14 kt METAR EHLW 210425Z AUTO 27014KT 230V320 9999 BKN015 13/10 Q1015 WHT
05:55
M
13 °C 10 km+ 1.600 ft 270°   270° 14 kt METAR EHLW 210355Z AUTO 27014KT 230V300 9999 BKN016 OVC020 13/11 Q1015 WHT
05:25
M
13 °C 10 km+ 1.500 ft 260°   260° 17 kt METAR EHLW 210325Z AUTO 26017KT 230V290 9999 BKN015 BKN018 BKN025 13/11 Q1015 WHT
05:17
M
13 °C 10 km+ 1.600 ft 260°   260° 18 kt METAR EHLW 210317Z AUTO 26018KT 230V300 9999 SCT014 BKN016 OVC019 13/11 Q1015 GRN
04:55
M
13 °C 10 km+ 1.700 ft 260°   260° 18 kt METAR EHLW 210255Z AUTO 26018KT 210V280 9999 FEW014 BKN017 BKN025 13/11 Q1015 WHT
04:42
M
14 °C 10 km+ 1.700 ft 260°   260° 16 kt METAR EHLW 210242Z AUTO 26016KT 230V290 9999 SCT014 BKN017 OVC020 14/11 Q1015 GRN
04:25
M
14 °C 10 km+ 2.000 ft 250°   250° 18 kt METAR EHLW 210225Z AUTO 25018KT 220V280 9999 SCT015 BKN020 OVC027 14/11 Q1015 WHT
04:10
M
14 °C 10 km+ 1.500 ft 240°   240° 14 kt METAR EHLW 210210Z AUTO 24014KT 210V270 9999 FEW012 BKN015 OVC019 14/12 Q1015 WHT
04:06
M
13 °C 10 km+ 1.700 ft 240°   240° 14 kt METAR EHLW 210206Z AUTO 24014KT 9999 FEW012 SCT014 BKN017 13/12 Q1015 GRN
03:41
M
13 °C 9 km 1.600 ft 230°   230° 12 kt METAR EHLW 210141Z AUTO 23012KT 200V260 9000 RA FEW010 FEW015CB BKN016 OVC020 13/12 Q1015 WHT
03:26
M
13 °C 10 km+ 1.300 ft 230°   230° 11 kt METAR EHLW 210126Z AUTO 23011KT 9999 -RADZ FEW011 BKN013 FEW015CB OVC016 13/12 Q1015 GRN
03:25
M
13 °C 10 km+ 1.500 ft 230°   230° 11 kt METAR EHLW 210125Z AUTO 23011KT 9999 FEW012 BKN015CB OVC018 13/12 Q1015 REDZ WHT
03:15
M
13 °C 8 km 2.600 ft 230°   230° 12 kt METAR EHLW 210115Z AUTO 23012KT 8000 -RADZ FEW011 FEW015CB SCT016 BKN026 13/12 Q1015 WHT
03:11
V
13 °C 9 km 3.200 ft 230°   230° 12 kt METAR EHLW 210111Z AUTO 23012KT 190V250 9000 DZ FEW011 FEW015CB SCT025 BKN032 13/12 Q1015 BLU
03:03
M
13 °C 7 km 1.400 ft 230°   230° 12 kt METAR EHLW 210103Z AUTO 23012KT 190V250 7000 +DZRA FEW012 BKN014 FEW015CB OVC016 13/11 Q1015 GRN
03:02
M
13 °C 10 km+ 1.500 ft 230°   230° 12 kt METAR EHLW 210102Z AUTO 23012KT 200V260 9999 SCT013 BKN015CB 13/11 Q1015 GRN
02:55
M
13 °C 10 km+ 1.500 ft 230°   230° 11 kt METAR EHLW 210055Z AUTO 23011KT 190V250 9999 SCT013 BKN015 OVC020 13/11 Q1015 GRN
02:35
M
13 °C 10 km+ 1.400 ft 220°   220° 10 kt METAR EHLW 210035Z AUTO 22010KT 180V250 9999 BKN014 OVC017 13/11 Q1015 GRN
02:34
M
12 °C 10 km+ 1.600 ft 220°   220° 9 kt METAR EHLW 210034Z AUTO 22009KT 180V250 9999 SCT014 OVC016 12/11 Q1015 GRN
02:28
M
12 °C 10 km+ 1.600 ft 220°   220° 7 kt METAR EHLW 210028Z AUTO 22007KT 9999 FEW014/// BKN016/// BKN057/// 12/10 Q1015 WHT
02:25
V
11 °C 10 km+ 5.600 ft 210°   210° 6 kt METAR EHLW 210025Z AUTO 21006KT 9999 FEW014 BKN056 BKN077 11/10 Q1015 BLU
01:55
V
10 °C 10 km+ - 200°   200° 5 kt METAR EHLW 202355Z AUTO 20005KT 170V230 9999 FEW056 10/09 Q1016 BLU
01:25
V
10 °C 10 km+ 5.100 ft 210°   210° 8 kt METAR EHLW 202325Z AUTO 21008KT 170V230 9999 FEW046 BKN051 10/09 Q1016 BLU
00:55
V
10 °C 10 km+ - 210°   210° 7 kt METAR EHLW 202255Z AUTO 21007KT 9999 FEW054 10/09 Q1016 BLU
00:25
V
11 °C 10 km+ 5.800 ft 240°   240° 7 kt METAR EHLW 202225Z AUTO 24007KT 9999 OVC058 11/09 Q1016 BLU

20 maja 2022

Czas Kod Pogoda Temp. Widoczność Chmury Wiatr METAR/SPECI
23:55
V
11 °C 10 km+ - 250°   250° 7 kt METAR EHLW 202155Z AUTO 25007KT 210V270 9999 NCD 11/09 Q1016 BLU
23:25
V
11 °C 10 km+ - 270°   270° 8 kt METAR EHLW 202125Z AUTO 27008KT 9999 NCD 11/09 Q1016 BLU
22:55
V
11 °C 10 km+ - 260°   260° 9 kt METAR EHLW 202055Z AUTO 26009KT 230V290 9999 NCD 11/10 Q1016 BLU
22:37
V
11 °C 10 km+ - 260°   260° 8 kt METAR EHLW 202037Z AUTO 26008KT 230V300 9999 FEW020 11/10 Q1016 BLU
22:29
M
11 °C 10 km+ 1.500 ft 260°   260° 7 kt METAR EHLW 202029Z AUTO 26007KT 230V290 9999 FEW009 BKN015 BKN019 11/10 Q1015 WHT
22:25
M
11 °C 10 km+ 1.600 ft 270°   270° 7 kt METAR EHLW 202025Z AUTO 27007KT 230V300 9999 FEW008 SCT013 BKN016 11/10 Q1015 GRN
22:06
V
11 °C 10 km+ 6.100 ft 270°   270° 6 kt METAR EHLW 202006Z AUTO 27006KT 240V300 9999 FEW008 BKN061 BKN069 11/10 Q1015 BLU
21:59
I
11 °C 10 km+ 800 ft 280°   280° 7 kt METAR EHLW 201959Z AUTO 28007KT 250V310 9999 FEW005 SCT006 BKN008 11/10 Q1015 YLO
21:55
M
11 °C 10 km+ 1.000 ft 290°   290° 8 kt METAR EHLW 201955Z AUTO 29008KT 9999 FEW004 SCT007 BKN010 11/10 Q1015 REDZ GRN
21:41
M
11 °C 6 km 2.500 ft 300°   300° 10 kt METAR EHLW 201941Z AUTO 30010KT 260V330 6000 -SHRA FEW013 FEW015CB BKN025 OVC029 11/10 Q1015 WHT
21:31
I
11 °C 4,3 km 1.300 ft 300°   300° 11 kt METAR EHLW 201931Z AUTO 30011KT 260V330 4300 SHRA FEW005 SCT007 BKN013 FEW015CB 11/10 Q1014 GRN
21:26
I
11 °C 5 km 600 ft 300°   300° 10 kt METAR EHLW 201926Z AUTO 30010KT 260V330 5000 SHRA BKN006 BKN009 BKN013 FEW015CB 11/10 Q1014 YLO
21:25
I
11 °C 4,2 km 1.000 ft 290°   290° 9 kt METAR EHLW 201925Z AUTO 29009KT 260V330 4200 SHRA SCT006 BKN010 BKN013 FEW015CB 11/10 Q1015 REDZ YLO
21:19
M
11 °C 10 km+ 1.800 ft 290°   290° 9 kt METAR EHLW 201919Z AUTO 29009KT 250V320 9999 DZ FEW007 SCT013 FEW015CB BKN018 11/10 Q1014 GRN
21:09
M
11 °C 9 km 2.100 ft 300°   300° 9 kt METAR EHLW 201909Z AUTO 30009KT 260V330 9000 DZRA FEW007 BKN021 OVC025 11/10 Q1014 WHT
21:08
M
11 °C 7 km 2.500 ft 300°   300° 9 kt METAR EHLW 201908Z AUTO 30009KT 260V340 7000 -RA FEW007 SCT021 OVC025 11/10 Q1014 WHT
20:55
M
11 °C 5 km 2.300 ft 300°   300° 10 kt METAR EHLW 201855Z AUTO 30010KT 270V330 5000 -RA BKN023 OVC027 11/10 Q1014 RERA REDZ WHT
20:39
I
11 °C 3,7 km 1.600 ft 300°   300° 14 kt METAR EHLW 201839Z AUTO 30014KT 260V330 3700 +DZ FEW006 BKN016 BKN020 11/10 Q1014 GRN
20:25
M
13 °C 10 km+ 1.600 ft 290°   290° 8 22 kt METAR EHLW 201825Z AUTO 29008G22KT 9999 -RA FEW010 SCT014 OVC016 13/11 Q1014 GRN
19:55
M
13 °C 10 km+ 1.800 ft 290°   290° 8 kt METAR EHLW 201755Z AUTO 29008KT 260V320 9999 BKN018 OVC021 13/11 Q1013 WHT
19:25
V
13 °C 10 km+ 6.500 ft 300°   300° 7 kt METAR EHLW 201725Z AUTO 30007KT 260V350 9999 SCT015 BKN065 BKN085 13/12 Q1013 REDZ WHT
18:55
V
12 °C 10 km+ 9.100 ft 350°   350° 4 kt METAR EHLW 201655Z AUTO 35004KT 300V030 9999 -RA FEW015CB SCT043 BKN091 12/11 Q1013 BLU
18:25
I
12 °C 3,4 km 6.000 ft 320°   320° 3 kt METAR EHLW 201625Z AUTO 32003KT 240V030 3400 +SHRA SCT015CB SCT046 BKN060 12/11 Q1014 REDZ YLO
17:55
V
12 °C 9 km 6.500 ft 290°   290° 5 kt METAR EHLW 201555Z AUTO 29005KT 260V320 9000 -RA SCT015CB OVC065 12/10 Q1014 RERA WHT
17:30
M
12 °C 6 km 1.500 ft 290°   290° 6 kt METAR EHLW 201530Z AUTO 29006KT 250V320 6000 RA BKN015CB SCT056 OVC069 12/09 Q1014 WHT
17:25
M
12 °C 9 km 1.500 ft 280°   280° 6 kt METAR EHLW 201525Z AUTO 28006KT 250V320 9000 RA BKN015CB BKN042 OVC068 12/10 Q1014 WHT
17:08
M
13 °C 9 km 1.500 ft 290°   290° 5 kt METAR EHLW 201508Z AUTO 29005KT 260V330 9000 SHRA BKN015CB SCT057 OVC062 13/10 Q1014 WHT
16:55
M
13 °C 7 km 6.400 ft 310°   310° 5 kt METAR EHLW 201455Z AUTO 31005KT 260V340 7000 RA FEW015CB BKN064 BKN069 OVC075 13/10 Q1014 WHT
16:44
V
14 °C 10 km+ 6.400 ft 310°   310° 3 kt METAR EHLW 201444Z AUTO 31003KT 220V360 9999 -RA FEW017CB BKN064 OVC075 14/10 Q1014 BLU
16:36
V
14 °C 10 km+ 7.400 ft 360°   360° 4 kt METAR EHLW 201436Z AUTO 36004KT 230V030 9999 -RA SCT016CB SCT065 BKN074 OVC083 14/10 Q1013 WHT
16:25
M
14 °C 8 km 1.500 ft 010°   010° 3 kt METAR EHLW 201425Z AUTO 01003KT 360V060 8000 SHRA BKN015CB OVC077 14/12 Q1014 WHT
16:16
M
15 °C 7 km 1.500 ft Var   Var 2 kt METAR EHLW 201416Z AUTO VRB02KT 7000 RA BKN015CB OVC076 15/13 Q1014 WHT
16:15
I
15 °C 4,4 km 1.500 ft Var   Var 1 kt METAR EHLW 201415Z AUTO VRB01KT 4400 SHRA BKN015CB OVC076 15/12 Q1014 GRN
16:05
I
15 °C 3,8 km 1.500 ft 250°   250° 3 kt METAR EHLW 201405Z AUTO 25003KT 210V360 3800 SHRA BKN015CB OVC077 15/12 Q1015 GRN
15:56
M
15 °C 9 km 1.500 ft 280°   280° 3 kt METAR EHLW 201356Z AUTO 28003KT 250V340 9000 RA BKN015CB OVC076 15/13 Q1015 WHT
15:55
V
15 °C 10 km+ 7.600 ft Var   Var 2 kt METAR EHLW 201355Z AUTO VRB02KT 9999 -RA SCT015CB OVC076 15/13 Q1015 WHT
15:31
V
16 °C 10 km+ 8.200 ft Var   Var 2 kt METAR EHLW 201331Z AUTO VRB02KT 9999 -SHRA SCT077 OVC082 16/10 Q1014 BLU BECMG 23004KT
15:25
V
16 °C 10 km+ 8.100 ft Var   Var 3 kt METAR EHLW 201325Z AUTO VRB03KT 9999 -RA OVC081 16/09 Q1014 BLU BECMG 23004KT
14:55
V
17 °C 10 km+ 12.000 ft Var   Var 6 kt METAR EHLW 201255Z AUTO VRB06KT 9999 OVC120 17/08 Q1014 BLU BECMG 23004KT
14:26
V
17 °C 10 km+ 12.000 ft Var   Var 7 kt METAR EHLW 201226Z AUTO VRB07KT 9999 OVC120 17/09 Q1015 BLU BECMG 23004KT
14:25
V
17 °C 10 km+ 11.000 ft Var   Var 6 kt METAR EHLW 201225Z AUTO VRB06KT 9999 OVC110 17/09 Q1015 BLU NOSIG
13:55
V
17 °C 10 km+ 10.000 ft Var   Var 7 kt METAR EHLW 201155Z AUTO VRB07KT 9999 OVC100 17/10 Q1016 BLU NOSIG
13:25
V
17 °C 10 km+ 9.600 ft 130°   130° 5 kt METAR EHLW 201125Z AUTO 13005KT 100V180 9999 FEW091 BKN096 OVC100 17/09 Q1017 BLU NOSIG
12:55
V
16 °C 10 km+ 8.600 ft 150°   150° 6 kt METAR EHLW 201055Z AUTO 15006KT 070V190 9999 FEW072 BKN086 OVC092 16/09 Q1017 BLU NOSIG
12:25
V
16 °C 10 km+ 10.000 ft 160°   160° 4 kt METAR EHLW 201025Z AUTO 16004KT 080V190 9999 FEW093 OVC100 16/09 Q1018 BLU NOSIG
11:55
V
16 °C 10 km+ 11.000 ft 130°   130° 6 kt METAR EHLW 200955Z AUTO 13006KT 070V170 9999 OVC110 16/09 Q1018 BLU NOSIG
11:25
V
16 °C 10 km+ 13.000 ft 160°   160° 6 kt METAR EHLW 200925Z AUTO 16006KT 120V180 9999 OVC130 16/09 Q1019 BLU NOSIG
10:55
V
16 °C 10 km+ 13.000 ft 160°   160° 6 kt METAR EHLW 200855Z AUTO 16006KT 110V210 9999 OVC130 16/10 Q1020 BLU NOSIG
10:25
V
16 °C 10 km+ 13.000 ft 150°   150° 7 kt METAR EHLW 200825Z AUTO 15007KT 090V170 9999 OVC130 16/11 Q1020 BLU NOSIG
09:55
V
15 °C 10 km+ 14.000 ft 150°   150° 5 kt METAR EHLW 200755Z AUTO 15005KT 100V220 9999 OVC140 15/09 Q1020 BLU NOSIG
09:36
V
15 °C 10 km+ 14.000 ft 170°   170° 4 kt METAR EHLW 200736Z AUTO 17004KT 090V200 9999 OVC140 15/09 Q1020 BLU NOSIG
09:25
V
15 °C 10 km+ 14.000 ft 170°   170° 4 kt METAR EHLW 200725Z AUTO 17004KT 060V200 9999 OVC140 15/09 Q1020 BLU TEMPO VRB03KT
08:55
V
15 °C 10 km+ 16.000 ft 130°   130° 3 kt METAR EHLW 200655Z AUTO 13003KT 090V190 9999 OVC160 15/10 Q1020 BLU TEMPO VRB03KT
08:26
V
14 °C 10 km+ 16.000 ft 120°   120° 3 kt METAR EHLW 200626Z AUTO 12003KT 050V180 9999 OVC160 14/09 Q1020 BLU TEMPO VRB03KT
08:25
V
14 °C 10 km+ 16.000 ft 140°   140° 3 kt METAR EHLW 200625Z AUTO 14003KT 070V180 9999 BKN160 OVC230 14/10 Q1020 BLU NOSIG
08:11
V
14 °C 10 km+ 17.000 ft 160°   160° 3 kt METAR EHLW 200611Z AUTO 16003KT 040V190 9999 BKN170 OVC310 14/10 Q1020 BLU NOSIG
07:55
V
13 °C 10 km+ - 180°   180° 3 kt METAR EHLW 200555Z AUTO 18003KT 090V190 9999 FEW380 13/11 Q1021 BLU
07:38
M
12 °C 7 km - 180°   180° 4 kt METAR EHLW 200538Z AUTO 18004KT 7000 BR SCT360 12/10 Q1021 WHT
07:25
M
11 °C 5 km 16.000 ft 180°   180° 3 kt METAR EHLW 200525Z AUTO 18003KT 140V220 5000 BR BKN160 11/11 Q1021 WHT
07:19
I
11 °C 4,7 km - 170°   170° 3 kt METAR EHLW 200519Z AUTO 17003KT 190V260 4700 BR FEW160 11/11 Q1021 GRN
06:55
I
10 °C 2,7 km - 160°   160° 1 kt METAR EHLW 200455Z AUTO 16001KT 2700 BR SCT340 10/09 Q1021 YLO
06:25
I
10 °C 2,4 km 15.000 ft 180°   180° 3 kt METAR EHLW 200425Z AUTO 18003KT 2400 BR OVC150 10/10 Q1021 YLO
06:12
I
10 °C 1,8 km 14.000 ft 190°   190° 4 kt METAR EHLW 200412Z AUTO 19004KT 1800 BR OVC140 10/10 Q1021 YLO
06:00
L
10 °C 1,4 km 14.000 ft 200°   200° 3 kt METAR EHLW 200400Z AUTO 20003KT 1400 BR OVC140 10/10 Q1021 AMB
05:56
I
9 °C 1,7 km 15.000 ft 200°   200° 3 kt METAR EHLW 200356Z AUTO 20003KT 1700 BR OVC150 09/09 Q1021 YLO
05:55
L
9 °C 500 m 15.000 ft 210°   210° 4 kt METAR EHLW 200355Z AUTO 21004KT 0500 FG OVC150 09/09 Q1021 RED
05:42
I
9 °C 1,9 km 15.000 ft 190°   190° 3 kt METAR EHLW 200342Z AUTO 19003KT 1900 BR OVC150 09/09 Q1020 YLO
05:29
L
10 °C 1,1 km 26.000 ft Var   Var 2 kt METAR EHLW 200329Z AUTO VRB02KT 1100 BR OVC260 10/09 Q1020 AMB
05:25
I
9 °C 2,1 km 26.000 ft Var   Var 2 kt METAR EHLW 200325Z AUTO VRB02KT 2100 BR FEW190 OVC260 09/09 Q1020 YLO
05:04
I
10 °C 2,3 km 17.000 ft 200°   200° 3 kt METAR EHLW 200304Z AUTO 20003KT 2300 BR OVC170 10/09 Q1021 YLO
04:59
M
10 °C 5 km 14.000 ft 210°   210° 3 kt METAR EHLW 200259Z AUTO 21003KT 5000 BR BKN140 OVC190 10/10 Q1021 WHT
04:55
I
10 °C 4,6 km 14.000 ft 210°   210° 3 kt METAR EHLW 200255Z AUTO 21003KT 4600 BR BKN140 OVC190 10/10 Q1021 GRN
04:40
I
10 °C 2,9 km 14.000 ft 210°   210° 2 kt METAR EHLW 200240Z AUTO 21002KT 2900 BR OVC140 10/10 Q1021 YLO
04:31
I
10 °C 4,7 km 15.000 ft 220°   220° 1 kt METAR EHLW 200231Z AUTO 22001KT 4700 BR SCT010 OVC150 10/10 Q1021 GRN
04:25
V
10 °C 8 km 16.000 ft 230°   230° 2 kt METAR EHLW 200225Z AUTO 23002KT 8000 BR SCT010 OVC160 10/10 Q1021 GRN
04:07
M
10 °C 7 km 17.000 ft 230°   230° 2 kt METAR EHLW 200207Z AUTO 23002KT 7000 BR OVC170 10/10 Q1021 WHT
Starsze dane

Pobierz naszą aplikację

Łatwy dostęp do całej pogody lotniczej na telefonie komórkowym i tablecie.
Z wieloma funkcjami niedostępnymi na stronie internetowej, takimi jak wsparcie offline i osobista lista lotnisk.

My i osoby trzecie śledzimy twoje zachowanie w internecie na naszej stronie za pomocą plików cookie. Jeśli kontynuujesz, zakładamy, że zgadzasz się z naszą polityką plików cookie. Dowiedz się więcej